Time;durP1;ratioP1;P1;durP2;ratioP2;P2;SDS_P1;SDS_P2;PMS_P1;PMS_P2;Temp;Humidity;BMP_temperature;BMP_pressure;BME280_temperature;BME280_humidity;BME280_pressure;Samples;Min_cycle;Max_cycle;Signal;HPM_P1;HPM_P2
2023/08/15 00:01:21;;;;;;;7.00;3.95;;;;;;;26.17;66.44;101010.09;4898291;29;20056;-70
2023/08/15 00:03:50;;;;;;;6.47;4.35;;;;;;;26.17;67.17;101006.47;4897842;29;20048;-70
2023/08/15 00:06:20;;;;;;;4.65;4.03;;;;;;;26.19;67.28;101006.91;4897912;29;20506;-70
2023/08/15 00:08:53;;;;;;;9.10;4.47;;;;;;;26.08;68.44;101008.72;4898136;29;20053;-71
2023/08/15 00:11:22;;;;;;;4.77;4.27;;;;;;;26.06;67.94;101014.72;4898072;29;20067;-70
2023/08/15 00:13:53;;;;;;;4.60;4.20;;;;;;;26.01;70.39;101015.84;4897632;29;20491;-71
2023/08/15 00:16:22;;;;;;;5.05;4.30;;;;;;;25.93;70.54;101011.31;4897870;29;20056;-70
2023/08/15 00:18:50;;;;;;;5.10;4.60;;;;;;;25.95;70.35;101013.75;4896576;29;20048;-70
2023/08/15 00:21:18;;;;;;;4.97;4.55;;;;;;;25.88;70.61;101008.81;4897623;29;20053;-70
2023/08/15 00:23:46;;;;;;;4.97;4.55;;;;;;;25.92;71.23;101012.50;4897652;29;20052;-70
2023/08/15 00:26:14;;;;;;;4.95;4.47;;;;;;;25.87;71.65;101021.22;4897494;29;20052;-70
2023/08/15 00:28:42;;;;;;;6.95;4.60;;;;;;;25.76;72.23;101021.84;4897820;29;20048;-70
2023/08/15 00:31:10;;;;;;;5.50;5.00;;;;;;;25.76;72.70;101021.84;4897017;29;20495;-70
2023/08/15 00:33:38;;;;;;;6.47;4.78;;;;;;;25.71;73.32;101019.34;4897754;29;20060;-70
2023/08/15 00:36:06;;;;;;;5.05;4.60;;;;;;;25.74;73.26;101010.22;4897917;29;20053;-70
2023/08/15 00:38:34;;;;;;;4.80;4.18;;;;;;;25.68;74.00;101014.50;4895355;29;20049;-70
2023/08/15 00:41:02;;;;;;;4.65;4.00;;;;;;;25.61;74.41;101018.00;4895800;29;20404;-70
2023/08/15 00:43:30;;;;;;;5.20;4.50;;;;;;;25.53;74.99;101012.59;4897553;29;20059;-70
2023/08/15 00:46:02;;;;;;;6.50;4.85;;;;;;;25.47;77.08;101014.91;4895028;29;20555;-70
2023/08/15 00:48:31;;;;;;;5.15;4.60;;;;;;;25.45;77.63;101020.06;4927049;29;20408;-70
2023/08/15 00:51:01;;;;;;;5.30;4.80;;;;;;;25.34;78.73;101020.69;4896046;29;20060;-70
2023/08/15 00:53:31;;;;;;;7.28;5.22;;;;;;;25.36;79.57;101014.69;4897406;29;20057;-70
2023/08/15 00:55:59;;;;;;;6.00;5.25;;;;;;;25.27;80.34;101011.34;4897131;29;20373;-70
2023/08/15 00:58:29;;;;;;;5.70;5.18;;;;;;;25.31;80.25;101013.03;4897720;29;20060;-70
2023/08/15 01:00:57;;;;;;;5.90;5.30;;;;;;;25.25;80.65;101006.09;4926953;29;20056;-70
2023/08/15 01:03:25;;;;;;;5.20;4.78;;;;;;;25.15;81.78;101004.72;4897293;29;20052;-70
2023/08/15 01:05:54;;;;;;;5.65;5.05;;;;;;;25.21;81.12;101006.03;4895992;29;20495;-71
2023/08/15 01:08:22;;;;;;;5.70;5.20;;;;;;;25.20;81.63;101010.03;4897017;29;20408;-70
2023/08/15 01:10:50;;;;;;;6.32;5.47;;;;;;;25.17;81.41;100998.75;4896943;29;20061;-70
2023/08/15 01:13:50;;;;;;;5.75;5.15;;;;;;;25.28;81.29;101005.38;4897367;29;20072;-70
2023/08/15 01:16:28;;;;;;;5.65;5.15;;;;;;;25.20;82.44;100992.41;4895535;29;20061;-71
2023/08/15 01:19:01;;;;;;;7.13;5.35;;;;;;;25.21;82.51;101011.63;4896908;29;20044;-70
2023/08/15 01:21:38;;;;;;;7.90;5.53;;;;;;;25.21;82.82;101005.22;4895884;29;20036;-71
2023/08/15 01:24:07;;;;;;;5.32;4.88;;;;;;;25.17;83.00;101009.97;4896873;29;20063;-70
2023/08/15 01:26:35;;;;;;;7.75;5.35;;;;;;;25.16;83.07;101011.16;4896946;29;20052;-70
2023/08/15 01:29:03;;;;;;;7.30;5.75;;;;;;;25.17;82.38;101010.75;4896612;29;20048;-69
2023/08/15 01:31:36;;;;;;;7.10;6.03;;;;;;;25.08;82.84;101008.19;4896871;29;20055;-70
2023/08/15 01:34:18;;;;;;;6.13;5.53;;;;;;;25.08;83.80;101004.59;4895044;29;20060;-70
2023/08/15 01:36:56;;;;;;;5.93;5.35;;;;;;;25.06;83.18;100999.34;4895575;29;20053;-70
2023/08/15 01:39:28;;;;;;;5.78;5.20;;;;;;;25.03;85.00;100993.69;4897110;29;20052;-70
2023/08/15 01:42:01;;;;;;;6.18;5.57;;;;;;;24.89;84.02;100997.00;4896792;29;20053;-70
2023/08/15 01:44:32;;;;;;;6.68;5.68;;;;;;;24.91;84.21;100989.88;4895437;29;20053;-70
2023/08/15 01:47:00;;;;;;;6.47;5.80;;;;;;;24.92;85.25;100996.28;4895347;29;20045;-70
2023/08/15 01:49:28;;;;;;;6.55;5.43;;;;;;;24.88;84.57;100987.78;4896889;29;20053;-70
2023/08/15 01:51:57;;;;;;;6.18;5.50;;;;;;;24.96;84.56;100981.19;4896183;29;20045;-70
2023/08/15 01:54:25;;;;;;;6.53;5.68;;;;;;;24.93;84.32;100989.50;4896659;29;20053;-70
2023/08/15 01:56:53;;;;;;;6.55;5.88;;;;;;;25.00;84.63;100984.03;4896593;29;20052;-70
2023/08/15 01:59:21;;;;;;;7.13;5.82;;;;;;;24.97;84.10;100984.75;4895063;29;20403;-70
2023/08/15 02:01:49;;;;;;;9.57;5.25;;;;;;;24.98;84.02;100985.59;4897909;29;20067;-70
2023/08/15 02:04:17;;;;;;;6.50;5.20;;;;;;;25.09;84.10;100981.00;4900011;29;20057;-71
2023/08/15 02:06:45;;;;;;;6.50;5.90;;;;;;;24.96;84.49;100971.94;4900580;29;20053;-70
2023/08/15 02:09:13;;;;;;;5.82;5.32;;;;;;;24.88;85.21;100970.22;4898810;29;20045;-70
2023/08/15 02:11:41;;;;;;;7.47;5.38;;;;;;;24.83;84.95;100974.13;4899899;29;20061;-70
2023/08/15 02:14:08;;;;;;;6.40;5.80;;;;;;;24.75;85.23;100975.94;4899774;29;20057;-70
2023/08/15 02:16:37;;;;;;;6.43;5.30;;;;;;;24.83;84.49;100979.72;4900060;29;20079;-70
2023/08/15 02:19:05;;;;;;;6.57;5.20;;;;;;;24.84;85.23;100978.53;4899808;29;20492;-71
2023/08/15 02:21:32;;;;;;;8.50;5.25;;;;;;;24.85;85.55;100980.16;4899795;29;20488;-70
2023/08/15 02:24:00;;;;;;;7.55;5.35;;;;;;;24.80;85.89;100981.22;4899774;29;20071;-70
2023/08/15 02:26:30;;;;;;;6.38;5.78;;;;;;;24.82;86.04;100978.91;4900001;29;20065;-71
2023/08/15 02:28:58;;;;;;;6.38;5.78;;;;;;;24.83;85.58;100974.91;4899798;29;20408;-71
2023/08/15 02:31:27;;;;;;;6.40;5.80;;;;;;;24.84;86.53;100975.72;4899984;29;20504;-70
2023/08/15 02:33:57;;;;;;;6.03;5.28;;;;;;;24.81;85.79;100970.84;4899851;29;20063;-70
2023/08/15 02:36:25;;;;;;;6.60;5.75;;;;;;;24.79;85.90;100978.78;4902706;29;20068;-68
2023/08/15 02:38:53;;;;;;;7.43;5.85;;;;;;;24.75;86.50;100967.53;4898099;29;20055;-68
2023/08/15 02:41:21;;;;;;;6.35;5.78;;;;;;;24.74;86.90;100962.28;4899072;29;20055;-70
2023/08/15 02:43:49;;;;;;;6.65;5.55;;;;;;;24.74;86.89;100953.91;4899167;29;20056;-70
2023/08/15 02:46:17;;;;;;;9.63;5.80;;;;;;;24.74;87.02;100962.28;4898843;29;20518;-69
2023/08/15 02:48:45;;;;;;;6.55;5.82;;;;;;;24.73;86.92;100963.47;4897275;29;20060;-70
2023/08/15 02:51:13;;;;;;;7.35;5.50;;;;;;;24.71;87.13;100961.03;4899354;29;20490;-71
2023/08/15 02:53:41;;;;;;;7.20;5.95;;;;;;;24.74;87.08;100948.31;4897464;29;20053;-70
2023/08/15 02:56:09;;;;;;;6.45;5.85;;;;;;;24.61;87.53;100958.81;4898941;29;20056;-70
2023/08/15 02:58:37;;;;;;;6.35;5.75;;;;;;;24.51;89.11;100952.66;4898999;29;20059;-70
2023/08/15 03:01:05;;;;;;;7.70;5.68;;;;;;;24.48;88.76;100947.00;4899303;29;20060;-70
2023/08/15 03:03:33;;;;;;;7.30;5.80;;;;;;;24.39;88.70;100945.19;4899094;29;20048;-69
2023/08/15 03:06:03;;;;;;;7.40;5.88;;;;;;;24.51;88.50;100943.44;4929267;29;20048;-70
2023/08/15 03:08:31;;;;;;;7.50;5.93;;;;;;;24.54;88.90;100940.72;4899145;29;20527;-71
2023/08/15 03:10:59;;;;;;;7.22;6.20;;;;;;;24.40;88.29;100937.63;4899207;29;20067;-70
2023/08/15 03:13:27;;;;;;;7.13;5.97;;;;;;;24.46;88.52;100944.53;4928590;29;20044;-70
2023/08/15 03:15:56;;;;;;;6.13;5.55;;;;;;;24.32;89.04;100939.44;4898207;29;20063;-69
2023/08/15 03:18:27;;;;;;;6.47;5.88;;;;;;;24.36;89.10;100939.53;4896950;29;20404;-70
2023/08/15 03:20:57;;;;;;;6.40;5.90;;;;;;;24.41;89.60;100937.28;4898341;29;20052;-71
2023/08/15 03:23:25;;;;;;;6.80;6.10;;;;;;;24.33;89.37;100937.47;4897482;29;20049;-71
2023/08/15 03:26:01;;;;;;;6.03;5.50;;;;;;;24.37;89.15;100929.97;4898621;29;20412;-71
2023/08/15 03:28:33;;;;;;;6.93;6.32;;;;;;;24.26;89.78;100929.72;4898196;29;20065;-71
2023/08/15 03:31:06;;;;;;;8.93;6.78;;;;;;;24.28;88.63;100932.97;4896657;29;20515;-70
2023/08/15 03:33:38;;;;;;;6.80;6.05;;;;;;;24.21;89.07;100933.63;4896639;29;20052;-71
2023/08/15 03:36:07;;;;;;;8.45;6.55;;;;;;;24.28;88.68;100922.59;4896347;29;20052;-70
2023/08/15 03:38:36;;;;;;;7.25;5.90;;;;;;;24.26;89.10;100927.75;4897046;29;20049;-70
2023/08/15 03:41:05;;;;;;;7.82;6.07;;;;;;;24.20;89.26;100925.59;4897101;29;20060;-70
2023/08/15 03:43:34;;;;;;;6.05;5.45;;;;;;;24.23;89.32;100927.66;4896488;29;20061;-70
2023/08/15 03:46:03;;;;;;;6.43;5.85;;;;;;;24.15;89.70;100930.31;4896575;29;20052;-71
2023/08/15 03:48:35;;;;;;;9.32;7.32;;;;;;;24.19;89.49;100935.19;4896385;29;20052;-70
2023/08/15 03:51:04;;;;;;;8.77;5.97;;;;;;;24.10;90.15;100927.78;4897785;29;20507;-70
2023/08/15 03:53:32;;;;;;;7.00;6.30;;;;;;;24.08;89.75;100923.72;4895670;29;20045;-69
2023/08/15 03:56:03;;;;;;;7.43;6.72;;;;;;;24.06;90.06;100932.47;4897629;29;20060;-70
2023/08/15 03:58:32;;;;;;;7.93;6.30;;;;;;;24.03;89.73;100934.00;4897271;29;20061;-70
2023/08/15 04:01:01;;;;;;;8.50;6.05;;;;;;;24.08;90.59;100946.91;4897505;29;20049;-70
2023/08/15 04:03:30;;;;;;;6.80;5.90;;;;;;;24.05;89.23;100950.41;4896002;29;20414;-70
2023/08/15 04:05:58;;;;;;;8.85;6.60;;;;;;;24.02;94.26;100946.38;4896290;29;20063;-71
2023/08/15 04:08:26;;;;;;;8.48;6.53;;;;;;;24.00;94.60;100945.13;4897859;29;20044;-71
2023/08/15 04:10:54;;;;;;;10.57;6.93;;;;;;;23.82;94.64;100945.50;4896532;29;20052;-71
2023/08/15 04:13:22;;;;;;;10.60;6.90;;;;;;;23.74;95.51;100949.28;4896249;29;20052;-71
2023/08/15 04:15:50;;;;;;;9.73;7.18;;;;;;;23.61;96.63;100956.97;4895970;29;20057;-71
2023/08/15 04:18:19;;;;;;;12.95;6.97;;;;;;;23.38;97.54;100949.19;4895932;29;20061;-71
2023/08/15 04:20:47;;;;;;;7.55;6.70;;;;;;;23.46;96.14;100961.38;4897287;29;20049;-71
2023/08/15 04:23:15;;;;;;;6.82;6.10;;;;;;;23.56;93.48;100962.81;4897514;29;20056;-71
2023/08/15 04:25:44;;;;;;;8.23;6.50;;;;;;;23.81;94.59;100971.00;4894898;29;20059;-71
2023/08/15 04:28:12;;;;;;;6.70;6.10;;;;;;;23.80;93.23;100977.78;4897270;29;20060;-71
2023/08/15 04:30:41;;;;;;;7.88;7.07;;;;;;;23.93;93.55;100986.84;4927904;29;20044;-71
2023/08/15 04:33:09;;;;;;;7.63;6.90;;;;;;;23.88;92.13;100991.56;4897341;29;20053;-71
2023/08/15 04:35:39;;;;;;;7.75;6.90;;;;;;;23.87;93.35;100980.72;4895517;29;20051;-70
2023/08/15 04:38:07;;;;;;;7.60;6.90;;;;;;;23.89;93.78;100981.16;4895184;29;20405;-71
2023/08/15 04:40:40;;;;;;;7.68;6.88;;;;;;;23.93;92.68;100986.84;4897590;29;20377;-71
2023/08/15 04:43:12;;;;;;;9.10;7.25;;;;;;;23.96;92.34;100988.94;4896202;29;20059;-71
2023/08/15 04:45:40;;;;;;;6.80;6.20;;;;;;;24.01;92.84;100985.84;4895393;29;20071;-71
2023/08/15 04:48:12;;;;;;;7.63;6.82;;;;;;;23.95;92.20;100982.50;4895523;29;20048;-70
2023/08/15 04:50:41;;;;;;;7.10;6.40;;;;;;;24.07;91.61;100990.03;4896098;29;20040;-70
2023/08/15 04:53:09;;;;;;;7.47;6.78;;;;;;;24.14;89.65;100984.59;4895456;29;20518;-69
2023/08/15 04:55:37;;;;;;;7.40;6.70;;;;;;;24.15;89.92;100986.22;4895455;29;20064;-69
2023/08/15 04:58:09;;;;;;;7.10;6.50;;;;;;;24.18;90.96;100983.88;4895492;29;20053;-71
2023/08/15 05:00:37;;;;;;;7.38;6.70;;;;;;;24.30;88.80;100992.16;4895202;29;20064;-69
2023/08/15 05:03:05;;;;;;;7.07;6.47;;;;;;;24.39;87.14;101000.34;4895569;29;20063;-71
2023/08/15 05:05:33;;;;;;;7.45;6.68;;;;;;;24.53;87.13;100997.84;4895589;29;20068;-71
2023/08/15 05:08:01;;;;;;;7.38;6.68;;;;;;;24.62;86.99;101003.22;4895268;29;20138;-71
2023/08/15 05:10:29;;;;;;;7.20;6.22;;;;;;;24.78;87.32;100999.56;4894716;29;20044;-71
2023/08/15 05:12:59;;;;;;;7.53;6.82;;;;;;;24.86;87.54;101003.31;4897485;29;20068;-71
2023/08/15 05:15:28;;;;;;;8.38;6.68;;;;;;;24.95;83.55;101006.72;4895693;29;20041;-71
2023/08/15 05:17:57;;;;;;;8.32;6.63;;;;;;;25.04;86.99;101006.50;4895110;29;20511;-71
2023/08/15 05:20:25;;;;;;;8.05;7.25;;;;;;;25.00;86.62;101003.63;4895068;29;20064;-71
2023/08/15 05:22:53;;;;;;;8.13;7.32;;;;;;;25.10;85.18;100999.41;4896790;29;20052;-71
2023/08/15 05:25:21;;;;;;;8.30;7.40;;;;;;;25.04;85.80;100998.94;4895138;29;20492;-71
2023/08/15 05:27:52;;;;;;;11.15;7.80;;;;;;;25.17;84.63;101002.34;4894992;29;20063;-71
2023/08/15 05:30:20;;;;;;;8.30;7.50;;;;;;;25.26;84.29;100998.53;4895617;29;20059;-71
2023/08/15 05:32:49;;;;;;;12.10;7.60;;;;;;;25.46;84.11;101004.91;4896572;29;20053;-71
2023/08/15 05:35:17;;;;;;;8.88;7.97;;;;;;;25.55;82.84;100996.28;4896591;29;20131;-71
2023/08/15 05:37:45;;;;;;;8.05;7.28;;;;;;;25.81;82.30;101003.09;4899474;29;20064;-70
2023/08/15 05:40:13;;;;;;;8.75;7.40;;;;;;;25.66;81.74;101007.66;4898520;29;20059;-71
2023/08/15 05:42:41;;;;;;;9.68;7.60;;;;;;;25.79;81.54;101017.50;4899028;29;20052;-71
2023/08/15 05:45:10;;;;;;;8.75;7.85;;;;;;;26.00;81.59;101008.63;4900080;29;20057;-70
2023/08/15 05:47:38;;;;;;;8.98;7.75;;;;;;;25.88;79.68;101009.66;4900785;29;20056;-71
2023/08/15 05:50:06;;;;;;;8.85;7.30;;;;;;;25.60;78.48;100999.56;4898856;29;20492;-71
2023/08/15 05:52:34;;;;;;;12.10;7.00;;;;;;;25.92;80.21;101004.09;4900713;29;20053;-71
2023/08/15 05:55:02;;;;;;;7.90;7.07;;;;;;;26.06;79.38;101013.91;4899743;29;20052;-71
2023/08/15 05:57:31;;;;;;;7.72;7.03;;;;;;;26.23;77.88;101013.41;4899605;29;20072;-71
2023/08/15 05:59:59;;;;;;;9.57;6.60;;;;;;;26.38;77.06;101008.81;4899897;29;20056;-71
2023/08/15 06:02:28;;;;;;;7.50;6.70;;;;;;;26.67;77.77;101008.38;4900143;29;20057;-71
2023/08/15 06:04:57;;;;;;;6.57;5.97;;;;;;;26.56;75.77;101008.25;4900360;29;20061;-71
2023/08/15 06:07:25;;;;;;;8.50;7.22;;;;;;;26.32;77.42;101007.53;4900501;29;20055;-71
2023/08/15 06:09:53;;;;;;;7.68;6.93;;;;;;;26.41;78.36;101007.25;4900292;29;20056;-71
2023/08/15 06:12:22;;;;;;;9.95;6.63;;;;;;;26.61;77.17;101021.13;4900885;29;20064;-71
2023/08/15 06:14:50;;;;;;;6.95;6.28;;;;;;;26.89;76.59;101012.28;4900211;29;20056;-71
2023/08/15 06:17:19;;;;;;;8.15;6.20;;;;;;;27.18;75.12;101017.44;4899482;29;20064;-71
2023/08/15 06:19:47;;;;;;;6.40;5.80;;;;;;;27.56;75.58;101017.44;4900783;29;20408;-71
2023/08/15 06:22:15;;;;;;;6.20;5.70;;;;;;;27.65;74.24;101008.69;4899498;29;20637;-71
2023/08/15 06:24:44;;;;;;;5.68;5.15;;;;;;;27.77;73.76;101019.66;4899223;29;20052;-73
2023/08/15 06:27:12;;;;;;;7.68;5.40;;;;;;;27.93;72.07;101018.56;4898330;29;20052;-70
2023/08/15 06:29:41;;;;;;;5.57;5.07;;;;;;;28.44;70.83;101019.72;4899070;29;20416;-71
2023/08/15 06:32:27;;;;;;;7.00;5.32;;;;;;;28.56;68.86;101022.22;4899020;29;20056;-71
2023/08/15 06:34:56;;;;;;;10.93;5.20;;;;;;;28.42;68.30;101025.75;4898878;29;20448;-70
2023/08/15 06:37:24;;;;;;;5.88;5.18;;;;;;;28.68;68.31;101026.69;4899235;29;20056;-71
2023/08/15 06:39:52;;;;;;;6.20;5.18;;;;;;;28.73;70.18;101024.72;4899004;29;20045;-71
2023/08/15 06:42:21;;;;;;;8.82;6.00;;;;;;;28.86;66.67;101022.31;4898810;29;20061;-71
2023/08/15 06:44:50;;;;;;;7.35;5.80;;;;;;;28.87;68.18;101024.78;4898667;29;20389;-71
2023/08/15 06:47:19;;;;;;;6.85;5.85;;;;;;;28.79;66.48;101023.91;4898875;29;20060;-71
2023/08/15 06:49:47;;;;;;;8.48;5.70;;;;;;;28.88;69.55;101026.41;4898194;29;20048;-71
2023/08/15 06:52:16;;;;;;;6.05;5.53;;;;;;;28.94;66.98;101027.63;4899006;29;20057;-71
2023/08/15 06:54:44;;;;;;;9.63;5.82;;;;;;;29.16;66.02;101024.88;4899147;29;20075;-70
2023/08/15 06:57:12;;;;;;;7.03;6.22;;;;;;;29.56;67.88;101024.97;4899343;29;20060;-69
2023/08/15 06:59:41;;;;;;;6.35;5.70;;;;;;;29.59;62.29;101023.38;4898769;29;20055;-70
2023/08/15 07:02:10;;;;;;;7.78;5.47;;;;;;;29.46;62.39;101026.56;4899032;29;20057;-71
2023/08/15 07:04:40;;;;;;;6.78;5.35;;;;;;;29.39;65.07;101023.72;4899404;29;20063;-70
2023/08/15 07:07:08;;;;;;;9.93;5.68;;;;;;;29.52;60.40;101023.38;4898968;29;20075;-71
2023/08/15 07:09:37;;;;;;;8.50;4.95;;;;;;;29.47;62.55;101033.78;4898933;29;20052;-70
2023/08/15 07:12:05;;;;;;;5.50;4.78;;;;;;;29.28;59.93;101022.91;4898870;29;20059;-70
2023/08/15 07:14:34;;;;;;;5.97;5.10;;;;;;;28.80;63.91;101024.72;4898772;29;20060;-70
2023/08/15 07:17:02;;;;;;;6.53;5.82;;;;;;;28.77;64.93;101020.69;4898782;29;20071;-70
2023/08/15 07:19:30;;;;;;;5.55;5.00;;;;;;;28.72;65.35;101020.28;4898769;29;20053;-70
2023/08/15 07:21:59;;;;;;;5.93;5.07;;;;;;;28.82;64.85;101028.78;4898854;29;20079;-70
2023/08/15 07:24:28;;;;;;;6.35;5.47;;;;;;;29.14;63.80;101038.56;4899531;29;20075;-70
2023/08/15 07:26:56;;;;;;;5.75;5.10;;;;;;;29.10;62.59;101041.38;4898980;29;20068;-70
2023/08/15 07:29:24;;;;;;;8.85;5.60;;;;;;;29.35;62.77;101039.81;4898974;29;20059;-70
2023/08/15 07:31:53;;;;;;;6.95;5.70;;;;;;;29.75;61.86;101040.69;4898565;29;20403;-71
2023/08/15 07:34:21;;;;;;;6.93;6.03;;;;;;;29.78;60.35;101037.06;4898258;29;20040;-71
2023/08/15 07:36:49;;;;;;;6.88;6.10;;;;;;;29.70;60.42;101041.09;4897602;29;20048;-69
2023/08/15 07:39:18;;;;;;;6.40;5.80;;;;;;;29.87;61.37;101041.50;4898107;29;20408;-72
2023/08/15 07:41:46;;;;;;;5.80;5.20;;;;;;;30.10;60.30;101037.50;4898437;29;20432;-70
2023/08/15 07:44:14;;;;;;;6.03;5.43;;;;;;;30.35;59.43;101033.81;4897709;29;20376;-70
2023/08/15 07:46:43;;;;;;;8.15;5.20;;;;;;;30.27;58.25;101033.03;4898106;29;20400;-70
2023/08/15 07:49:11;;;;;;;6.75;4.75;;;;;;;30.50;57.19;101029.72;4897696;29;20059;-70
2023/08/15 07:51:40;;;;;;;8.70;5.88;;;;;;;30.51;58.91;101037.03;4897563;29;20053;-70
2023/08/15 07:54:08;;;;;;;7.07;5.13;;;;;;;30.86;57.18;101017.53;4898085;29;20048;-70
2023/08/15 07:56:37;;;;;;;5.32;4.82;;;;;;;30.94;56.38;101016.28;4897879;29;20067;-69
2023/08/15 07:59:05;;;;;;;7.18;4.43;;;;;;;30.89;54.77;101019.53;4897742;29;20076;-69
2023/08/15 08:01:34;;;;;;;5.15;4.65;;;;;;;30.79;55.16;101012.72;4897646;29;20056;-70
2023/08/15 08:04:03;;;;;;;5.53;5.03;;;;;;;31.09;54.62;101017.00;4898507;29;20064;-70
2023/08/15 08:06:31;;;;;;;4.82;4.43;;;;;;;31.02;53.33;101011.41;4897621;29;20271;-70
2023/08/15 08:09:08;;;;;;;5.15;4.47;;;;;;;31.14;54.59;101009.31;4897677;29;20083;-71
2023/08/15 08:11:38;;;;;;;5.78;4.93;;;;;;;31.31;53.73;101019.75;4897670;29;20052;-71
2023/08/15 08:14:06;;;;;;;6.18;4.57;;;;;;;31.53;53.19;101018.78;4897783;29;20076;-71
2023/08/15 08:16:35;;;;;;;4.68;4.28;;;;;;;31.49;52.86;101007.50;4897521;29;20071;-70
2023/08/15 08:19:04;;;;;;;10.63;4.93;;;;;;;31.78;51.09;101015.75;4897500;29;20060;-70
2023/08/15 08:21:33;;;;;;;4.93;4.53;;;;;;;31.61;49.57;101018.31;4897726;29;20053;-68
2023/08/15 08:24:01;;;;;;;4.75;4.22;;;;;;;31.53;49.44;101016.75;4897957;29;20079;-70
2023/08/15 08:26:30;;;;;;;5.13;4.18;;;;;;;31.68;50.22;101025.94;4897569;29;20052;-70
2023/08/15 08:28:58;;;;;;;5.13;4.30;;;;;;;31.63;50.36;101018.69;4898165;29;20055;-68
2023/08/15 08:31:27;;;;;;;4.47;4.03;;;;;;;31.78;49.13;101027.06;4897474;29;20060;-70
2023/08/15 08:33:56;;;;;;;5.13;4.20;;;;;;;31.74;49.31;101021.44;4897524;29;20060;-70
2023/08/15 08:36:24;;;;;;;5.22;4.72;;;;;;;31.78;48.76;101027.06;4897666;29;20056;-70
2023/08/15 08:38:52;;;;;;;5.63;5.05;;;;;;;31.70;52.06;101011.34;4897505;29;20057;-69
2023/08/15 08:41:22;;;;;;;5.68;5.07;;;;;;;31.26;51.74;101011.66;4897444;29;20048;-70
2023/08/15 08:43:50;;;;;;;8.13;5.03;;;;;;;31.77;49.20;101014.16;4896914;29;20060;-70
2023/08/15 08:46:19;;;;;;;4.70;4.30;;;;;;;31.79;48.49;101008.88;4896922;29;20065;-70
2023/08/15 08:48:49;;;;;;;4.80;4.38;;;;;;;32.16;48.98;100996.00;4896507;29;20056;-70
2023/08/15 08:51:18;;;;;;;6.43;4.68;;;;;;;32.00;49.01;101007.06;4896863;29;20064;-71
2023/08/15 08:53:47;;;;;;;5.60;5.10;;;;;;;31.42;48.84;100999.06;4897088;29;20048;-69
2023/08/15 08:56:17;;;;;;;4.82;4.32;;;;;;;31.81;49.17;101000.75;4896277;29;20060;-70
2023/08/15 08:58:49;;;;;;;7.18;5.53;;;;;;;31.84;48.00;101002.78;4896683;29;20436;-69
2023/08/15 09:01:18;;;;;;;5.80;5.30;;;;;;;31.56;50.03;100995.34;4895151;29;20065;-69
2023/08/15 09:03:46;;;;;;;5.43;4.93;;;;;;;32.05;50.44;100989.63;4896449;29;20056;-70
2023/08/15 09:06:15;;;;;;;6.75;4.95;;;;;;;31.85;50.76;100993.06;4896492;29;20075;-70
2023/08/15 09:08:43;;;;;;;5.63;5.13;;;;;;;32.35;47.79;100990.94;4896405;29;20059;-70
2023/08/15 09:11:12;;;;;;;5.70;4.97;;;;;;;32.38;47.40;100992.13;4896909;29;20083;-70
2023/08/15 09:13:50;;;;;;;4.78;4.38;;;;;;;32.80;46.72;100990.00;4900520;29;20408;-70
2023/08/15 09:16:18;;;;;;;5.60;5.10;;;;;;;32.65;48.84;100997.09;4900446;29;20064;-68
2023/08/15 09:18:48;;;;;;;6.45;4.80;;;;;;;32.57;46.37;100993.53;4900474;29;20397;-70
2023/08/15 09:21:17;;;;;;;5.22;4.72;;;;;;;32.38;47.63;100984.44;4900962;29;20075;-70
2023/08/15 09:23:45;;;;;;;5.38;4.88;;;;;;;32.75;47.62;100978.34;4900769;29;20052;-70
2023/08/15 09:26:14;;;;;;;6.03;5.18;;;;;;;32.63;46.78;100979.69;4900428;29;20071;-70
2023/08/15 09:28:45;;;;;;;5.20;4.70;;;;;;;33.04;46.45;100977.97;4900563;29;20061;-69
2023/08/15 09:31:13;;;;;;;4.88;4.47;;;;;;;33.67;46.36;100970.13;4900654;29;20072;-71
2023/08/15 09:33:42;;;;;;;6.15;5.55;;;;;;;33.51;44.41;100972.41;4900517;29;20056;-70
2023/08/15 09:36:11;;;;;;;5.28;4.55;;;;;;;33.09;46.05;100969.00;4900742;29;20053;-70
2023/08/15 09:38:39;;;;;;;4.72;4.32;;;;;;;33.08;46.72;100961.72;4900586;29;20075;-70
2023/08/15 09:41:12;;;;;;;5.63;4.47;;;;;;;33.33;43.18;100969.03;4900502;29;20056;-70
2023/08/15 09:43:50;;;;;;;5.00;4.57;;;;;;;32.98;44.56;100954.97;4900538;29;20064;-69
2023/08/15 09:46:19;;;;;;;4.95;4.45;;;;;;;33.14;45.63;100962.84;4900438;29;20057;-69
2023/08/15 09:48:49;;;;;;;5.82;4.50;;;;;;;32.57;49.65;100946.22;4900545;29;20142;-70
2023/08/15 09:51:18;;;;;;;5.25;4.60;;;;;;;33.48;45.94;100947.69;4900718;29;20084;-69
2023/08/15 09:53:47;;;;;;;4.35;4.03;;;;;;;33.55;45.05;100946.81;4900390;29;20403;-71
2023/08/15 09:56:17;;;;;;;5.15;4.65;;;;;;;33.65;44.64;100953.53;4917687;29;20508;-71
2023/08/15 09:58:46;;;;;;;4.80;4.40;;;;;;;33.73;43.34;100952.19;4917415;29;20408;-71
2023/08/15 10:01:19;;;;;;;4.32;3.92;;;;;;;34.15;42.08;100951.00;4919091;29;20052;-70
2023/08/15 10:03:49;;;;;;;4.78;4.30;;;;;;;34.10;42.54;100943.78;4918816;29;20403;-70
2023/08/15 10:06:19;;;;;;;4.68;4.28;;;;;;;34.06;42.64;100943.06;4918740;29;20403;-70
2023/08/15 10:08:48;;;;;;;5.20;4.15;;;;;;;34.28;40.47;100939.78;4918624;29;20407;-70
2023/08/15 10:11:18;;;;;;;4.93;4.43;;;;;;;33.89;41.79;100942.16;4917552;29;20055;-71
2023/08/15 10:13:49;;;;;;;6.10;4.43;;;;;;;34.17;40.79;100942.84;4918566;29;20059;-70
2023/08/15 10:16:18;;;;;;;4.85;4.35;;;;;;;34.03;41.52;100939.03;4918440;29;20423;-69
2023/08/15 10:18:57;;;;;;;4.18;3.88;;;;;;;33.70;40.94;100943.69;4918966;29;20052;-71
2023/08/15 10:21:26;;;;;;;5.47;4.38;;;;;;;33.98;42.73;100935.91;4918801;29;20096;-71
2023/08/15 10:24:03;;;;;;;5.32;4.32;;;;;;;34.24;42.20;100934.19;4918451;29;20071;-70
2023/08/15 10:26:32;;;;;;;4.88;4.47;;;;;;;34.07;44.64;100930.47;4918946;29;20060;-70
2023/08/15 10:29:02;;;;;;;4.57;4.18;;;;;;;34.34;41.16;100937.25;4918357;29;20086;-71
2023/08/15 10:31:38;;;;;;;5.75;4.65;;;;;;;34.21;41.09;100926.56;4918799;29;20071;-70
2023/08/15 10:34:10;;;;;;;5.63;4.20;;;;;;;34.09;40.59;100928.00;4918556;29;20067;-71
2023/08/15 10:36:45;;;;;;;4.45;4.05;;;;;;;33.80;41.66;100916.38;4918670;29;20056;-70
2023/08/15 10:39:15;;;;;;;4.00;3.70;;;;;;;34.14;42.52;100918.16;4899545;29;20056;-70
2023/08/15 10:41:43;;;;;;;4.47;4.13;;;;;;;34.17;39.98;100920.94;4900477;29;20052;-68
2023/08/15 10:44:11;;;;;;;4.75;4.35;;;;;;;34.26;40.00;100916.72;4899025;29;20060;-69
2023/08/15 10:46:40;;;;;;;4.50;4.10;;;;;;;34.43;41.37;100921.22;4899427;29;20067;-70
2023/08/15 10:49:13;;;;;;;4.57;4.15;;;;;;;34.54;41.04;100928.69;4899285;29;20064;-70
2023/08/15 10:51:41;;;;;;;4.50;4.10;;;;;;;34.48;40.47;100921.91;4900023;29;20059;-70
2023/08/15 10:54:14;;;;;;;4.32;3.92;;;;;;;35.04;40.66;100920.28;4899830;29;20043;-70
2023/08/15 10:56:43;;;;;;;4.30;4.00;;;;;;;35.24;39.89;100920.22;4900455;29;20075;-70
2023/08/15 10:59:16;;;;;;;4.82;4.43;;;;;;;34.85;38.84;100917.06;4899591;29;20420;-70
2023/08/15 11:01:46;;;;;;;4.78;4.38;;;;;;;34.51;41.67;100910.50;4899778;29;20059;-71
2023/08/15 11:04:17;;;;;;;4.55;4.25;;;;;;;34.62;39.80;100907.44;4898694;29;20044;-70
2023/08/15 11:06:48;;;;;;;4.50;4.10;;;;;;;34.58;41.10;100916.06;4898956;29;20408;-68
2023/08/15 11:09:16;;;;;;;4.50;4.20;;;;;;;34.84;39.92;100912.63;4898743;29;20057;-70
2023/08/15 11:11:46;;;;;;;4.55;4.07;;;;;;;35.02;38.50;100917.06;4898404;29;20052;-69
2023/08/15 11:14:16;;;;;;;5.25;4.20;;;;;;;35.16;39.36;100910.25;4898447;29;20059;-70
2023/08/15 11:16:46;;;;;;;4.53;3.85;;;;;;;35.28;38.30;100901.00;4898332;29;20412;-70
2023/08/15 11:19:16;;;;;;;4.43;4.05;;;;;;;35.30;40.84;100892.84;4898224;29;20412;-69
2023/08/15 11:21:46;;;;;;;5.97;4.60;;;;;;;35.22;39.61;100897.09;4897496;29;20408;-69
2023/08/15 11:24:14;;;;;;;4.70;4.30;;;;;;;35.50;38.48;100895.59;4898059;29;20059;-70
2023/08/15 11:26:43;;;;;;;6.35;4.40;;;;;;;35.42;39.57;100894.16;4898125;29;20057;-70
2023/08/15 11:29:12;;;;;;;5.05;4.47;;;;;;;35.44;40.09;100893.72;4898128;29;20056;-69
2023/08/15 11:31:41;;;;;;;4.20;3.80;;;;;;;34.90;40.30;100888.13;4898381;29;20053;-70
2023/08/15 11:34:13;;;;;;;4.80;4.40;;;;;;;35.30;39.50;100884.31;4897958;29;20056;-69